createdAt,value
2022-11-20T00:01:43.658Z,44.58
2022-11-20T00:04:13.651Z,43.33
2022-11-20T00:06:42.670Z,34.40
2022-11-20T00:09:13.680Z,42.75
2022-11-20T00:11:42.291Z,44.15
2022-11-20T00:14:17.782Z,44.17
2022-11-20T00:16:46.430Z,41.75
2022-11-20T00:19:15.125Z,40.97
2022-11-20T00:21:43.989Z,46.40
2022-11-20T00:24:21.852Z,38.05
2022-11-20T00:26:51.070Z,39.40
2022-11-20T00:29:19.730Z,39.08
2022-11-20T00:31:48.770Z,42.70
2022-11-20T00:34:17.751Z,41.38
2022-11-20T00:36:55.078Z,39.28
2022-11-20T00:39:25.253Z,43.15
2022-11-20T00:41:54.902Z,37.97
2022-11-20T00:44:24.318Z,46.92
2022-11-20T00:46:53.083Z,37.70
2022-11-20T00:49:24.603Z,37.63
2022-11-20T00:51:53.291Z,39.08
2022-11-20T00:54:22.100Z,39.75
2022-11-20T00:56:55.094Z,35.53
2022-11-20T00:59:24.147Z,42.13
2022-11-20T01:01:53.356Z,44.60
2022-11-20T01:04:22.513Z,34.80
2022-11-20T01:06:51.297Z,41.05
2022-11-20T01:09:20.344Z,39.17
2022-11-20T01:11:52.501Z,37.83
2022-11-20T01:14:28.449Z,37.72
2022-11-20T01:16:57.032Z,37.53
2022-11-20T01:19:28.635Z,40.17
2022-11-20T01:21:57.952Z,31.65
2022-11-20T01:24:26.502Z,49.58
2022-11-20T01:26:55.391Z,37.25
2022-11-20T01:29:26.019Z,38.08
2022-11-20T01:31:56.236Z,51.13
2022-11-20T01:34:28.231Z,39.03
2022-11-20T01:36:56.626Z,39.85
2022-11-20T01:39:30.995Z,42.85
2022-11-20T01:42:20.134Z,40.47
2022-11-20T01:44:58.730Z,36.97
2022-11-20T01:47:39.435Z,27.88
2022-11-20T01:50:14.549Z,38.83
2022-11-20T01:52:47.022Z,34.72
2022-11-20T01:55:22.127Z,43.67
2022-11-20T01:57:51.857Z,42.78
2022-11-20T02:00:32.615Z,41.35
2022-11-20T02:03:06.542Z,35.97
2022-11-20T02:05:39.760Z,36.15
2022-11-20T02:08:09.455Z,43.33
2022-11-20T02:10:38.432Z,38.67
2022-11-20T02:13:28.301Z,40.70
2022-11-20T02:16:22.099Z,38.15
2022-11-20T02:19:07.096Z,36.85
2022-11-20T02:21:59.397Z,38.05
2022-11-20T02:24:45.467Z,42.80
2022-11-20T02:27:26.901Z,37.00
2022-11-20T02:29:59.122Z,35.67
2022-11-20T02:32:31.137Z,35.05
2022-11-20T02:34:59.885Z,30.58
2022-11-20T02:37:35.265Z,37.38
2022-11-20T02:40:27.133Z,35.72
2022-11-20T02:42:56.896Z,35.03
2022-11-20T02:45:28.850Z,34.65
2022-11-20T02:48:00.443Z,33.15
2022-11-20T02:50:29.351Z,35.28
2022-11-20T02:52:58.562Z,35.15
2022-11-20T02:55:28.543Z,34.47
2022-11-20T02:58:00.081Z,39.45
2022-11-20T03:00:31.681Z,36.47
2022-11-20T03:03:00.671Z,32.55
2022-11-20T03:05:29.325Z,39.90
2022-11-20T03:07:57.970Z,32.90
2022-11-20T03:10:33.319Z,30.23
2022-11-20T03:13:05.493Z,31.25
2022-11-20T03:15:40.747Z,31.45
2022-11-20T03:18:10.578Z,28.50
2022-11-20T03:20:45.315Z,32.70
2022-11-20T03:23:14.865Z,30.10
2022-11-20T03:25:44.818Z,33.28
2022-11-20T03:28:13.453Z,36.92
2022-11-20T03:30:45.015Z,36.47
2022-11-20T03:33:17.417Z,30.80
2022-11-20T03:36:02.169Z,39.80
2022-11-20T03:38:59.430Z,35.17
2022-11-20T03:42:07.200Z,33.65
2022-11-20T03:44:53.471Z,35.63
2022-11-20T03:47:32.395Z,31.95
2022-11-20T03:50:30.414Z,32.67
2022-11-20T03:53:19.312Z,26.95
2022-11-20T03:55:50.262Z,32.75
2022-11-20T03:58:44.938Z,31.15
2022-11-20T04:01:54.698Z,35.30
2022-11-20T04:04:32.362Z,27.30
2022-11-20T04:07:02.550Z,32.28
2022-11-20T04:09:42.500Z,31.98
2022-11-20T04:12:20.858Z,26.52
2022-11-20T04:15:19.513Z,28.67
2022-11-20T04:18:01.758Z,32.22
2022-11-20T04:20:44.165Z,33.08
2022-11-20T04:23:28.847Z,27.63
2022-11-20T04:26:28.763Z,32.67
2022-11-20T04:29:28.153Z,33.45
2022-11-20T04:32:07.409Z,33.25
2022-11-20T04:34:52.184Z,34.22
2022-11-20T04:37:23.846Z,33.08
2022-11-20T04:39:55.068Z,34.03
2022-11-20T04:42:32.692Z,34.20
2022-11-20T04:45:01.570Z,37.00
2022-11-20T04:47:31.491Z,31.95
2022-11-20T04:50:16.542Z,34.50
2022-11-20T04:52:47.668Z,39.33
2022-11-20T04:55:19.053Z,39.28
2022-11-20T04:57:53.261Z,33.20
2022-11-20T05:00:22.060Z,35.42
2022-11-20T05:02:52.222Z,30.65
2022-11-20T05:05:23.690Z,32.53
2022-11-20T05:07:55.308Z,37.92
2022-11-20T05:10:27.181Z,35.03
2022-11-20T05:12:55.899Z,37.00
2022-11-20T05:15:24.746Z,33.45
2022-11-20T05:17:56.021Z,33.22
2022-11-20T05:20:28.167Z,33.95
2022-11-20T05:22:59.733Z,32.35
2022-11-20T05:25:28.266Z,29.10
2022-11-20T05:27:56.712Z,28.42
2022-11-20T05:30:45.030Z,35.33
2022-11-20T05:33:41.212Z,31.30
2022-11-20T05:36:33.521Z,31.40
2022-11-20T05:39:40.825Z,33.13
2022-11-20T05:42:26.805Z,34.78
2022-11-20T05:44:55.403Z,34.05
2022-11-20T05:47:23.860Z,36.78
2022-11-20T05:49:54.791Z,30.48
2022-11-20T05:52:23.666Z,34.20
2022-11-20T05:54:52.928Z,31.40
2022-11-20T05:57:24.289Z,27.73
2022-11-20T05:59:53.480Z,31.70
2022-11-20T06:02:24.669Z,34.85
2022-11-20T06:04:57.797Z,38.83
2022-11-20T06:07:29.411Z,28.65
2022-11-20T06:09:58.230Z,31.48
2022-11-20T06:12:27.406Z,32.47
2022-11-20T06:14:59.674Z,34.55
2022-11-20T06:17:28.424Z,40.00
2022-11-20T06:20:01.492Z,34.83
2022-11-20T06:22:41.672Z,33.55
2022-11-20T06:25:37.749Z,34.05
2022-11-20T06:28:06.607Z,42.42
2022-11-20T06:30:37.984Z,30.13
2022-11-20T06:33:07.047Z,35.90
2022-11-20T06:35:37.698Z,35.60
2022-11-20T06:38:12.886Z,30.08
2022-11-20T06:40:50.487Z,32.13
2022-11-20T06:43:19.017Z,32.50
2022-11-20T06:45:51.151Z,34.38
2022-11-20T06:48:23.593Z,30.10
2022-11-20T06:51:00.661Z,32.15
2022-11-20T06:53:44.076Z,30.02
2022-11-20T06:56:12.597Z,32.78
2022-11-20T06:58:41.008Z,41.83
2022-11-20T07:01:13.144Z,36.00
2022-11-20T07:03:42.794Z,31.38
2022-11-20T07:06:13.203Z,29.45
2022-11-20T07:08:41.876Z,27.65
2022-11-20T07:11:15.060Z,34.42
2022-11-20T07:13:46.779Z,35.63
2022-11-20T07:16:15.511Z,37.00
2022-11-20T07:18:52.778Z,37.50
2022-11-20T07:21:25.197Z,31.65
2022-11-20T07:23:53.814Z,39.15
2022-11-20T07:26:22.674Z,34.83
2022-11-20T07:29:00.094Z,40.70
2022-11-20T07:31:28.950Z,41.97
2022-11-20T07:34:04.567Z,42.47
2022-11-20T07:36:35.095Z,42.95
2022-11-20T07:39:03.563Z,43.78
2022-11-20T07:41:32.269Z,40.75
2022-11-20T07:47:23.179Z,41.17
2022-11-20T07:50:07.586Z,38.60
2022-11-20T07:52:37.985Z,45.97
2022-11-20T07:55:07.568Z,39.05
2022-11-20T07:57:36.793Z,33.03
2022-11-20T08:00:17.992Z,33.83
2022-11-20T08:03:00.929Z,30.73
2022-11-20T08:06:15.398Z,31.27
2022-11-20T08:08:54.005Z,31.45
2022-11-20T08:11:43.248Z,33.20
2022-11-20T08:14:28.727Z,32.40
2022-11-20T08:17:04.547Z,28.40
2022-11-20T08:19:32.959Z,28.77
2022-11-20T08:22:04.519Z,33.00
2022-11-20T08:24:37.370Z,25.80
2022-11-20T08:27:14.477Z,31.25
2022-11-20T08:29:52.280Z,26.90
2022-11-20T08:32:23.308Z,31.90
2022-11-20T08:34:59.445Z,27.60
2022-11-20T08:37:29.925Z,26.10
2022-11-20T08:40:01.827Z,29.40
2022-11-20T08:42:33.192Z,27.27
2022-11-20T08:45:01.469Z,25.35
2022-11-20T08:47:44.371Z,26.70
2022-11-20T08:50:15.517Z,25.48
2022-11-20T08:52:46.786Z,28.58
2022-11-20T08:55:17.090Z,22.67
2022-11-20T08:57:57.472Z,22.10
2022-11-20T09:00:26.106Z,19.60
2022-11-20T09:02:57.290Z,22.02
2022-11-20T09:05:25.958Z,19.90
2022-11-20T09:07:55.502Z,22.23
2022-11-20T09:10:31.602Z,21.13
2022-11-20T09:13:00.522Z,18.92
2022-11-20T09:15:30.266Z,20.63
2022-11-20T09:18:00.754Z,23.23
2022-11-20T09:20:30.851Z,20.77
2022-11-20T09:23:02.429Z,22.75
2022-11-20T09:25:32.615Z,23.83
2022-11-20T09:28:17.410Z,25.27
2022-11-20T09:30:48.831Z,23.67
2022-11-20T09:33:17.861Z,21.95
2022-11-20T09:36:04.209Z,24.67
2022-11-20T09:38:32.613Z,27.33
2022-11-20T09:41:07.111Z,21.20
2022-11-20T09:43:51.428Z,25.15
2022-11-20T09:46:28.629Z,18.17
2022-11-20T09:49:17.078Z,22.08
2022-11-20T09:51:55.842Z,19.85
2022-11-20T09:54:30.882Z,24.42
2022-11-20T09:57:03.850Z,30.02
2022-11-20T09:59:38.556Z,30.02
2022-11-20T10:02:18.545Z,28.20
2022-11-20T10:04:51.767Z,26.27
2022-11-20T10:07:33.455Z,26.45
2022-11-20T10:10:05.563Z,26.70
2022-11-20T10:12:52.342Z,27.65
2022-11-20T10:15:31.592Z,30.02
2022-11-20T10:18:25.737Z,29.17
2022-11-20T10:21:08.661Z,24.30
2022-11-20T10:24:06.238Z,27.95
2022-11-20T10:26:59.607Z,29.65
2022-11-20T10:29:35.767Z,27.60
2022-11-20T10:32:06.623Z,30.15
2022-11-20T10:34:40.993Z,30.42
2022-11-20T10:37:15.270Z,31.83
2022-11-20T10:39:54.012Z,31.98
2022-11-20T10:42:33.507Z,26.23
2022-11-20T10:45:26.888Z,32.05
2022-11-20T10:47:59.228Z,35.78
2022-11-20T10:50:28.547Z,29.42
2022-11-20T10:53:06.213Z,27.02
2022-11-20T10:55:54.361Z,29.70
2022-11-20T10:58:35.354Z,32.35
2022-11-20T11:01:15.725Z,28.38
2022-11-20T11:03:45.638Z,33.10
2022-11-20T11:06:24.578Z,31.15
2022-11-20T11:08:59.089Z,35.65
2022-11-20T11:11:32.210Z,34.08
2022-11-20T11:14:08.370Z,31.65
2022-11-20T11:16:52.834Z,34.72
2022-11-20T11:19:22.146Z,33.22
2022-11-20T11:21:55.679Z,35.13
2022-11-20T11:24:43.081Z,33.65
2022-11-20T11:27:18.000Z,36.15
2022-11-20T11:29:47.798Z,35.90
2022-11-20T11:32:24.930Z,42.20
2022-11-20T11:35:20.946Z,38.58
2022-11-20T11:38:14.805Z,31.92
2022-11-20T11:40:45.988Z,31.42
2022-11-20T11:43:49.022Z,30.50
2022-11-20T11:47:00.360Z,34.97
2022-11-20T11:49:38.515Z,35.80
2022-11-20T11:52:20.862Z,36.92
2022-11-20T11:54:57.445Z,37.30
2022-11-20T11:57:32.408Z,29.30
2022-11-20T12:00:07.069Z,26.23
2022-11-20T12:03:03.402Z,34.60
2022-11-20T12:05:41.488Z,30.30
2022-11-20T12:08:25.560Z,28.33
2022-11-20T12:11:03.341Z,33.50
2022-11-20T12:13:51.954Z,31.77
2022-11-20T12:16:30.125Z,27.52
2022-11-20T12:19:01.816Z,35.78
2022-11-20T12:22:02.506Z,29.13
2022-11-20T12:25:06.716Z,30.20
2022-11-20T12:28:20.436Z,27.63
2022-11-20T12:31:00.009Z,29.33
2022-11-20T12:33:52.040Z,28.73
2022-11-20T12:36:36.593Z,25.30
2022-11-20T12:39:29.728Z,29.77
2022-11-20T12:42:42.743Z,31.80
2022-11-20T12:45:23.307Z,27.98
2022-11-20T12:48:05.281Z,20.95
2022-11-20T12:51:08.206Z,23.40
2022-11-20T12:53:42.657Z,38.40
2022-11-20T12:56:24.678Z,37.50
2022-11-20T12:59:10.055Z,31.65
2022-11-20T13:01:48.765Z,31.40
2022-11-20T13:04:32.276Z,32.58
2022-11-20T13:07:02.110Z,36.33
2022-11-20T13:09:36.339Z,31.55
2022-11-20T13:12:08.794Z,27.25
2022-11-20T13:14:42.922Z,31.80
2022-11-20T13:17:16.767Z,33.65
2022-11-20T13:19:57.058Z,28.80
2022-11-20T13:22:47.324Z,32.78
2022-11-20T13:25:30.539Z,37.30
2022-11-20T13:28:01.452Z,33.47
2022-11-20T13:30:31.677Z,33.28
2022-11-20T13:33:13.748Z,30.42
2022-11-20T13:35:58.394Z,31.00
2022-11-20T13:38:28.850Z,31.02
2022-11-20T13:41:29.148Z,35.25
2022-11-20T13:44:19.633Z,33.67
2022-11-20T13:46:48.878Z,39.55
2022-11-20T13:49:24.492Z,36.08
2022-11-20T13:52:01.221Z,54.70
2022-11-20T13:54:57.339Z,68.57
2022-11-20T13:58:01.275Z,41.20
2022-11-20T14:00:45.656Z,31.70
2022-11-20T14:03:43.755Z,30.38
2022-11-20T14:06:16.757Z,36.55
2022-11-20T14:08:51.906Z,31.98
2022-11-20T14:11:27.478Z,32.67
2022-11-20T14:13:59.610Z,35.00
2022-11-20T14:16:33.277Z,33.78
2022-11-20T14:19:42.482Z,36.67
2022-11-20T14:22:20.923Z,34.50
2022-11-20T14:24:50.486Z,40.75
2022-11-20T14:27:21.833Z,35.90
2022-11-20T14:29:53.010Z,33.63
2022-11-20T14:32:29.477Z,35.17
2022-11-20T14:35:03.742Z,69.55
2022-11-20T14:37:38.458Z,84.50
2022-11-20T14:40:24.768Z,49.17
2022-11-20T14:42:58.258Z,43.58
2022-11-20T14:45:38.699Z,47.00
2022-11-20T14:48:11.873Z,43.67
2022-11-20T14:50:41.480Z,42.92
2022-11-20T14:53:12.778Z,44.42
2022-11-20T14:55:58.564Z,51.22
2022-11-20T14:58:34.733Z,45.92
2022-11-20T15:01:05.976Z,49.72
2022-11-20T15:03:40.592Z,47.90
2022-11-20T15:06:14.992Z,47.22
2022-11-20T15:08:53.141Z,46.88
2022-11-20T15:11:25.525Z,51.45
2022-11-20T15:14:00.650Z,50.00
2022-11-20T15:16:31.802Z,55.30
2022-11-20T15:19:04.517Z,52.00
2022-11-20T15:21:32.794Z,56.90
2022-11-20T15:24:04.130Z,49.03
2022-11-20T15:26:34.921Z,51.92
2022-11-20T15:29:04.013Z,55.70
2022-11-20T15:31:32.314Z,53.17
2022-11-20T15:34:08.034Z,56.63
2022-11-20T15:36:36.685Z,52.97
2022-11-20T15:39:08.578Z,58.60
2022-11-20T15:41:40.344Z,53.30
2022-11-20T15:44:11.363Z,56.58
2022-11-20T15:46:46.176Z,58.60
2022-11-20T15:49:19.680Z,53.10
2022-11-20T15:51:51.412Z,59.58
2022-11-20T15:54:22.485Z,55.88
2022-11-20T15:56:53.270Z,63.55
2022-11-20T15:59:21.697Z,62.97
2022-11-20T16:01:50.130Z,60.90
2022-11-20T16:04:20.708Z,60.85
2022-11-20T16:06:49.230Z,65.72
2022-11-20T16:09:17.659Z,66.97
2022-11-20T16:11:46.707Z,65.60
2022-11-20T16:14:46.462Z,60.38
2022-11-20T16:17:18.282Z,57.78
2022-11-20T16:19:48.087Z,63.55
2022-11-20T16:22:16.351Z,62.53
2022-11-20T16:24:51.340Z,57.22
2022-11-20T16:27:20.821Z,61.05
2022-11-20T16:29:49.918Z,65.40
2022-11-20T16:32:21.222Z,68.00
2022-11-20T16:34:55.203Z,61.38
2022-11-20T16:37:23.926Z,66.53
2022-11-20T16:40:03.265Z,55.67
2022-11-20T16:42:35.818Z,51.83
2022-11-20T16:45:09.911Z,55.95
2022-11-20T16:47:38.232Z,48.42
2022-11-20T16:50:09.182Z,56.50
2022-11-20T16:52:37.740Z,61.38
2022-11-20T16:55:13.190Z,65.05
2022-11-20T16:57:42.716Z,60.72
2022-11-20T17:00:12.175Z,59.67
2022-11-20T17:02:43.379Z,79.88
2022-11-20T17:05:13.165Z,68.22
2022-11-20T17:07:41.724Z,62.47
2022-11-20T17:10:13.513Z,65.93
2022-11-20T17:12:44.614Z,59.95
2022-11-20T17:15:13.075Z,72.50
2022-11-20T17:17:44.476Z,82.28
2022-11-20T17:20:14.408Z,86.20
2022-11-20T17:22:48.609Z,84.53
2022-11-20T17:25:16.934Z,86.78
2022-11-20T17:27:48.082Z,58.15
2022-11-20T17:30:21.990Z,63.75
2022-11-20T17:32:50.323Z,61.47
2022-11-20T17:35:25.641Z,65.65
2022-11-20T17:38:05.567Z,85.38
2022-11-20T17:40:36.746Z,95.90
2022-11-20T17:43:05.113Z,86.70
2022-11-20T17:45:36.708Z,86.43
2022-11-20T17:48:05.796Z,69.45
2022-11-20T17:50:35.862Z,63.28
2022-11-20T17:53:04.778Z,70.95
2022-11-20T17:55:55.824Z,115.07
2022-11-20T17:58:23.695Z,106.13
2022-11-20T18:00:55.074Z,105.88
2022-11-20T18:03:26.387Z,114.93
2022-11-20T18:06:17.155Z,86.88
2022-11-20T18:08:48.961Z,65.60
2022-11-20T18:11:21.553Z,62.45
2022-11-20T18:14:15.498Z,49.10
2022-11-20T18:16:46.413Z,66.68
2022-11-20T18:19:32.733Z,48.90
2022-11-20T18:22:22.960Z,54.88
2022-11-20T18:24:57.266Z,71.53
2022-11-20T18:27:32.020Z,114.38
2022-11-20T18:30:25.960Z,69.28
2022-11-20T18:32:55.528Z,71.82
2022-11-20T18:35:36.046Z,87.25
2022-11-20T18:38:37.558Z,64.80
2022-11-20T18:41:41.446Z,66.95
2022-11-20T18:47:56.951Z,55.90
2022-11-20T18:50:43.260Z,49.25
2022-11-20T18:53:28.484Z,48.58
2022-11-20T18:56:09.681Z,51.15
2022-11-20T18:59:03.815Z,58.47
2022-11-20T19:01:59.129Z,66.32
2022-11-20T19:04:52.757Z,69.18
2022-11-20T19:10:54.953Z,73.85
2022-11-20T19:13:39.934Z,72.15
2022-11-20T19:16:24.872Z,56.30
2022-11-20T19:19:16.611Z,53.42
2022-11-20T19:21:59.138Z,44.72
2022-11-20T19:24:46.485Z,45.95
2022-11-20T19:27:16.494Z,49.22
2022-11-20T19:29:45.530Z,47.38
2022-11-20T19:32:33.375Z,46.42
2022-11-20T19:35:42.641Z,45.60
2022-11-20T19:38:25.735Z,66.65
2022-11-20T19:41:06.533Z,80.05
2022-11-20T19:43:37.954Z,74.50
2022-11-20T19:46:33.842Z,71.43
2022-11-20T19:49:25.463Z,75.07
2022-11-20T19:52:05.034Z,83.30
2022-11-20T19:54:36.747Z,76.57
2022-11-20T19:57:08.985Z,75.95
2022-11-20T19:59:39.259Z,83.60
2022-11-20T20:02:12.844Z,80.07
2022-11-20T20:04:42.137Z,69.90
2022-11-20T20:07:14.500Z,69.70
2022-11-20T20:09:43.917Z,56.53
2022-11-20T20:12:19.720Z,62.00
2022-11-20T20:15:10.048Z,49.80
2022-11-20T20:18:14.287Z,53.08
2022-11-20T20:21:04.507Z,55.45
2022-11-20T20:23:35.063Z,58.30
2022-11-20T20:26:04.744Z,45.72
2022-11-20T20:28:33.999Z,42.25
2022-11-20T20:31:10.349Z,54.90
2022-11-20T20:33:42.215Z,48.22
2022-11-20T20:36:21.934Z,53.33
2022-11-20T20:39:02.922Z,54.05
2022-11-20T20:41:39.845Z,57.15
2022-11-20T20:44:32.656Z,60.63
2022-11-20T20:47:03.270Z,58.25
2022-11-20T20:49:34.734Z,51.17
2022-11-20T20:52:05.018Z,49.70
2022-11-20T20:54:35.397Z,53.40
2022-11-20T20:57:04.232Z,50.42
2022-11-20T20:59:33.502Z,46.67
2022-11-20T21:02:03.799Z,49.75
2022-11-20T21:04:32.325Z,43.90
2022-11-20T21:07:00.908Z,49.83
2022-11-20T21:09:32.809Z,51.92
2022-11-20T21:12:08.034Z,49.95
2022-11-20T21:14:37.263Z,47.35
2022-11-20T21:17:14.967Z,51.30
2022-11-20T21:19:49.965Z,66.65
2022-11-20T21:22:21.242Z,59.08
2022-11-20T21:24:59.246Z,55.53
2022-11-20T21:27:31.287Z,64.10
2022-11-20T21:30:03.186Z,76.25
2022-11-20T21:32:41.779Z,66.35
2022-11-20T21:35:13.746Z,59.60
2022-11-20T21:37:45.931Z,61.50
2022-11-20T21:40:25.484Z,59.83
2022-11-20T21:42:57.394Z,55.70
2022-11-20T21:45:29.163Z,57.08
2022-11-20T21:47:59.300Z,51.42
2022-11-20T21:50:32.268Z,63.95
2022-11-20T21:53:10.663Z,65.32
2022-11-20T21:55:48.238Z,53.45
2022-11-20T21:58:19.988Z,59.60
2022-11-20T22:01:03.045Z,63.60
2022-11-20T22:03:40.697Z,48.60
2022-11-20T22:06:11.543Z,62.80
2022-11-20T22:08:42.674Z,56.95
2022-11-20T22:11:28.444Z,51.85
2022-11-20T22:14:30.546Z,51.72
2022-11-20T22:17:05.111Z,63.65
2022-11-20T22:19:37.841Z,71.82
2022-11-20T22:22:20.930Z,70.63
2022-11-20T22:24:52.049Z,60.35
2022-11-20T22:27:23.350Z,54.75
2022-11-20T22:29:52.401Z,48.00
2022-11-20T22:32:21.081Z,59.55
2022-11-20T22:34:52.011Z,58.42
2022-11-20T22:37:23.207Z,50.38
2022-11-20T22:39:51.829Z,48.60
2022-11-20T22:42:23.465Z,58.47
2022-11-20T22:44:52.448Z,45.10
2022-11-20T22:47:21.194Z,60.95
2022-11-20T22:49:50.998Z,57.75
2022-11-20T22:52:20.247Z,53.70
2022-11-20T22:54:51.586Z,58.58
2022-11-20T22:57:25.745Z,53.83
2022-11-20T22:59:57.038Z,60.22
2022-11-20T23:02:25.460Z,62.47
2022-11-20T23:04:55.351Z,57.55
2022-11-20T23:07:35.939Z,57.35
2022-11-20T23:10:07.987Z,63.50
2022-11-20T23:12:39.255Z,69.63
2022-11-20T23:15:10.092Z,58.85
2022-11-20T23:17:38.543Z,64.65
2022-11-20T23:20:10.518Z,62.53
2022-11-20T23:22:41.373Z,67.22
2022-11-20T23:25:12.951Z,65.60
2022-11-20T23:27:41.538Z,67.63
2022-11-20T23:30:15.906Z,75.82
2022-11-20T23:32:44.233Z,66.88
2022-11-20T23:35:14.403Z,65.60
2022-11-20T23:37:43.917Z,81.68
2022-11-20T23:40:13.469Z,74.35
2022-11-20T23:43:02.345Z,72.35
2022-11-20T23:45:31.367Z,64.00
2022-11-20T23:47:59.770Z,76.75
2022-11-20T23:50:59.255Z,76.43
2022-11-20T23:53:31.584Z,71.78
2022-11-20T23:56:02.945Z,71.07
2022-11-20T23:58:42.903Z,65.03
